Lydick, Indiana
Current Conditions -  °F | °C
As of 7:54 AM on Wednesday 22 Oct 2014 (Local Time) from KSBN Reporting Station
Clear Clear  
Wind Chill: 32°   Ceiling: Unl
Heat Index: 32°   Visibility: 8mi
Dew Point: 29°   Wind: 0mph
Humidity: 88%   Direction: NA
Pressure: 30.34"   Gusts: NA
Location:  41.7216°N, 86.3352°W
Report Text: KSBN 221154Z 00000KT 8SM CLR 00/M02 A3034 RMK AO2 SLP280 T00001017 10033 21011 51014
Loading
Personal Weather Stations






























Interactive Weather Map
Tropical Storm Tracking
New forecast layout! Learn more

10-Day Weather Forecast

Advertisements
Track Severe Weather on mobile